sensor_id;sensor_type;location;lat;lon;timestamp;temperature;humidity
3942;DHT22;1985;48.592;8.850;2024-03-29T00:00:41;6.60;99.90
3942;DHT22;1985;48.592;8.850;2024-03-29T00:03:08;6.70;99.90
3942;DHT22;1985;48.592;8.850;2024-03-29T00:05:34;6.70;99.90
3942;DHT22;1985;48.592;8.850;2024-03-29T00:08:00;6.70;99.90
3942;DHT22;1985;48.592;8.850;2024-03-29T00:10:25;6.60;99.90
3942;DHT22;1985;48.592;8.850;2024-03-29T00:12:51;6.50;99.90
3942;DHT22;1985;48.592;8.850;2024-03-29T00:15:17;6.50;99.90
3942;DHT22;1985;48.592;8.850;2024-03-29T00:17:42;6.40;99.00
3942;DHT22;1985;48.592;8.850;2024-03-29T00:20:08;6.50;99.80
3942;DHT22;1985;48.592;8.850;2024-03-29T00:22:34;6.40;99.90
3942;DHT22;1985;48.592;8.850;2024-03-29T00:25:00;6.50;99.90
3942;DHT22;1985;48.592;8.850;2024-03-29T00:27:26;6.50;99.90
3942;DHT22;1985;48.592;8.850;2024-03-29T00:29:54;6.50;99.90
3942;DHT22;1985;48.592;8.850;2024-03-29T00:32:20;6.50;99.90
3942;DHT22;1985;48.592;8.850;2024-03-29T00:34:49;6.50;99.90
3942;DHT22;1985;48.592;8.850;2024-03-29T00:37:14;6.50;99.90
3942;DHT22;1985;48.592;8.850;2024-03-29T00:39:40;6.50;99.90
3942;DHT22;1985;48.592;8.850;2024-03-29T00:42:07;6.50;99.90
3942;DHT22;1985;48.592;8.850;2024-03-29T00:44:34;6.50;99.90
3942;DHT22;1985;48.592;8.850;2024-03-29T00:47:01;6.40;99.90
3942;DHT22;1985;48.592;8.850;2024-03-29T00:49:27;6.40;99.90
3942;DHT22;1985;48.592;8.850;2024-03-29T00:51:52;6.40;99.90
3942;DHT22;1985;48.592;8.850;2024-03-29T00:54:18;6.30;99.90
3942;DHT22;1985;48.592;8.850;2024-03-29T00:56:44;6.30;99.90
3942;DHT22;1985;48.592;8.850;2024-03-29T00:59:10;6.30;99.90
3942;DHT22;1985;48.592;8.850;2024-03-29T01:01:35;6.30;99.90
3942;DHT22;1985;48.592;8.850;2024-03-29T01:04:01;6.30;99.90
3942;DHT22;1985;48.592;8.850;2024-03-29T01:06:27;6.20;99.90
3942;DHT22;1985;48.592;8.850;2024-03-29T01:08:52;6.20;99.90
3942;DHT22;1985;48.592;8.850;2024-03-29T01:11:18;6.20;99.90
3942;DHT22;1985;48.592;8.850;2024-03-29T01:13:43;6.20;99.90
3942;DHT22;1985;48.592;8.850;2024-03-29T01:16:09;6.30;99.90
3942;DHT22;1985;48.592;8.850;2024-03-29T01:18:35;6.30;99.90
3942;DHT22;1985;48.592;8.850;2024-03-29T01:21:00;6.30;99.90
3942;DHT22;1985;48.592;8.850;2024-03-29T01:23:26;6.40;99.90
3942;DHT22;1985;48.592;8.850;2024-03-29T01:25:51;6.40;99.90
3942;DHT22;1985;48.592;8.850;2024-03-29T01:28:17;6.30;99.90
3942;DHT22;1985;48.592;8.850;2024-03-29T01:30:43;6.40;99.90
3942;DHT22;1985;48.592;8.850;2024-03-29T01:33:16;6.30;99.90
3942;DHT22;1985;48.592;8.850;2024-03-29T01:35:42;6.30;99.90
3942;DHT22;1985;48.592;8.850;2024-03-29T01:38:07;6.30;99.90
3942;DHT22;1985;48.592;8.850;2024-03-29T01:40:33;6.30;99.90
3942;DHT22;1985;48.592;8.850;2024-03-29T01:43:01;6.40;99.90
3942;DHT22;1985;48.592;8.850;2024-03-29T01:45:26;6.50;99.90
3942;DHT22;1985;48.592;8.850;2024-03-29T01:47:52;6.50;99.90
3942;DHT22;1985;48.592;8.850;2024-03-29T01:50:18;6.50;99.90
3942;DHT22;1985;48.592;8.850;2024-03-29T01:52:44;6.50;99.90
3942;DHT22;1985;48.592;8.850;2024-03-29T01:55:10;6.50;99.90
3942;DHT22;1985;48.592;8.850;2024-03-29T01:57:36;6.40;99.90
3942;DHT22;1985;48.592;8.850;2024-03-29T02:00:02;6.40;99.90
3942;DHT22;1985;48.592;8.850;2024-03-29T02:02:31;6.50;99.90
3942;DHT22;1985;48.592;8.850;2024-03-29T02:04:57;6.60;99.90
3942;DHT22;1985;48.592;8.850;2024-03-29T02:07:25;6.60;99.90
3942;DHT22;1985;48.592;8.850;2024-03-29T02:09:50;6.70;99.90
3942;DHT22;1985;48.592;8.850;2024-03-29T02:12:16;6.70;99.90
3942;DHT22;1985;48.592;8.850;2024-03-29T02:14:42;6.70;99.90
3942;DHT22;1985;48.592;8.850;2024-03-29T02:17:08;6.80;99.90
3942;DHT22;1985;48.592;8.850;2024-03-29T02:19:34;6.70;99.90
3942;DHT22;1985;48.592;8.850;2024-03-29T02:22:00;6.80;99.90
3942;DHT22;1985;48.592;8.850;2024-03-29T02:24:27;6.70;99.90
3942;DHT22;1985;48.592;8.850;2024-03-29T02:26:55;6.80;99.90
3942;DHT22;1985;48.592;8.850;2024-03-29T02:29:21;6.80;99.90
3942;DHT22;1985;48.592;8.850;2024-03-29T02:31:47;6.80;99.90
3942;DHT22;1985;48.592;8.850;2024-03-29T02:34:12;6.80;99.90
3942;DHT22;1985;48.592;8.850;2024-03-29T02:36:38;6.80;99.90
3942;DHT22;1985;48.592;8.850;2024-03-29T02:39:04;6.80;99.90
3942;DHT22;1985;48.592;8.850;2024-03-29T02:41:29;6.80;99.90
3942;DHT22;1985;48.592;8.850;2024-03-29T02:43:56;6.80;99.90
3942;DHT22;1985;48.592;8.850;2024-03-29T02:46:21;6.60;99.90
3942;DHT22;1985;48.592;8.850;2024-03-29T02:48:47;6.60;99.90
3942;DHT22;1985;48.592;8.850;2024-03-29T02:51:13;6.60;99.90
3942;DHT22;1985;48.592;8.850;2024-03-29T02:53:38;6.70;99.90
3942;DHT22;1985;48.592;8.850;2024-03-29T02:56:05;6.50;99.90
3942;DHT22;1985;48.592;8.850;2024-03-29T02:58:34;6.60;99.90
3942;DHT22;1985;48.592;8.850;2024-03-29T03:01:08;6.70;99.90
3942;DHT22;1985;48.592;8.850;2024-03-29T03:03:35;6.70;99.90
3942;DHT22;1985;48.592;8.850;2024-03-29T03:06:01;6.80;99.90
3942;DHT22;1985;48.592;8.850;2024-03-29T03:08:29;6.90;99.90
3942;DHT22;1985;48.592;8.850;2024-03-29T03:11:13;6.90;99.90
3942;DHT22;1985;48.592;8.850;2024-03-29T03:13:38;6.90;99.90
3942;DHT22;1985;48.592;8.850;2024-03-29T03:16:04;7.00;99.90
3942;DHT22;1985;48.592;8.850;2024-03-29T03:18:30;7.00;99.90
3942;DHT22;1985;48.592;8.850;2024-03-29T03:20:57;7.00;99.90
3942;DHT22;1985;48.592;8.850;2024-03-29T03:23:26;7.00;99.90
3942;DHT22;1985;48.592;8.850;2024-03-29T03:28:21;6.90;99.90
3942;DHT22;1985;48.592;8.850;2024-03-29T03:30:50;6.80;99.90
3942;DHT22;1985;48.592;8.850;2024-03-29T03:33:16;6.90;99.90
3942;DHT22;1985;48.592;8.850;2024-03-29T03:35:42;6.90;99.90
3942;DHT22;1985;48.592;8.850;2024-03-29T03:38:08;6.90;99.90
3942;DHT22;1985;48.592;8.850;2024-03-29T03:40:37;6.90;99.90
3942;DHT22;1985;48.592;8.850;2024-03-29T03:43:04;6.80;99.90
3942;DHT22;1985;48.592;8.850;2024-03-29T03:45:39;6.90;99.90
3942;DHT22;1985;48.592;8.850;2024-03-29T03:48:07;6.90;99.90
3942;DHT22;1985;48.592;8.850;2024-03-29T03:50:34;6.80;99.90
3942;DHT22;1985;48.592;8.850;2024-03-29T03:53:00;6.70;99.90
3942;DHT22;1985;48.592;8.850;2024-03-29T03:55:26;6.50;99.90
3942;DHT22;1985;48.592;8.850;2024-03-29T03:57:53;6.50;99.90
3942;DHT22;1985;48.592;8.850;2024-03-29T04:00:19;6.60;99.90
3942;DHT22;1985;48.592;8.850;2024-03-29T04:02:49;6.60;99.90
3942;DHT22;1985;48.592;8.850;2024-03-29T04:05:19;6.30;99.90
3942;DHT22;1985;48.592;8.850;2024-03-29T04:07:45;5.80;99.90
3942;DHT22;1985;48.592;8.850;2024-03-29T04:10:12;5.50;99.90
3942;DHT22;1985;48.592;8.850;2024-03-29T04:12:38;5.60;99.90
3942;DHT22;1985;48.592;8.850;2024-03-29T04:15:04;5.80;99.90
3942;DHT22;1985;48.592;8.850;2024-03-29T04:17:31;6.00;99.90
3942;DHT22;1985;48.592;8.850;2024-03-29T04:19:57;6.20;99.90
3942;DHT22;1985;48.592;8.850;2024-03-29T04:22:23;6.40;99.90
3942;DHT22;1985;48.592;8.850;2024-03-29T04:24:49;6.40;99.90
3942;DHT22;1985;48.592;8.850;2024-03-29T04:27:15;6.40;99.90
3942;DHT22;1985;48.592;8.850;2024-03-29T04:29:41;6.60;99.90
3942;DHT22;1985;48.592;8.850;2024-03-29T04:32:08;6.70;99.90
3942;DHT22;1985;48.592;8.850;2024-03-29T04:34:33;6.70;99.90
3942;DHT22;1985;48.592;8.850;2024-03-29T04:36:59;6.70;99.90
3942;DHT22;1985;48.592;8.850;2024-03-29T04:39:25;6.70;99.90
3942;DHT22;1985;48.592;8.850;2024-03-29T04:41:51;6.70;99.90
3942;DHT22;1985;48.592;8.850;2024-03-29T04:44:27;6.70;99.90
3942;DHT22;1985;48.592;8.850;2024-03-29T04:46:53;6.90;99.90
3942;DHT22;1985;48.592;8.850;2024-03-29T04:49:23;6.90;99.90
3942;DHT22;1985;48.592;8.850;2024-03-29T04:51:56;7.00;99.90
3942;DHT22;1985;48.592;8.850;2024-03-29T04:54:22;7.10;99.90
3942;DHT22;1985;48.592;8.850;2024-03-29T04:56:47;7.00;99.90
3942;DHT22;1985;48.592;8.850;2024-03-29T04:59:13;6.70;99.90
3942;DHT22;1985;48.592;8.850;2024-03-29T05:01:42;6.50;99.90
3942;DHT22;1985;48.592;8.850;2024-03-29T05:04:09;6.40;99.90
3942;DHT22;1985;48.592;8.850;2024-03-29T05:06:35;6.40;99.90
3942;DHT22;1985;48.592;8.850;2024-03-29T05:09:01;6.40;99.90
3942;DHT22;1985;48.592;8.850;2024-03-29T05:11:27;6.40;99.90
3942;DHT22;1985;48.592;8.850;2024-03-29T05:13:52;6.50;99.90
3942;DHT22;1985;48.592;8.850;2024-03-29T05:16:18;6.60;99.90
3942;DHT22;1985;48.592;8.850;2024-03-29T05:18:44;6.70;99.90
3942;DHT22;1985;48.592;8.850;2024-03-29T05:21:09;6.80;99.90
3942;DHT22;1985;48.592;8.850;2024-03-29T05:23:35;6.90;99.90
3942;DHT22;1985;48.592;8.850;2024-03-29T05:26:01;6.90;99.90
3942;DHT22;1985;48.592;8.850;2024-03-29T05:28:26;7.00;99.90
3942;DHT22;1985;48.592;8.850;2024-03-29T05:30:52;7.00;99.90
3942;DHT22;1985;48.592;8.850;2024-03-29T05:33:18;7.10;99.90
3942;DHT22;1985;48.592;8.850;2024-03-29T05:35:43;7.10;99.90
3942;DHT22;1985;48.592;8.850;2024-03-29T05:38:09;7.10;99.90
3942;DHT22;1985;48.592;8.850;2024-03-29T05:40:35;7.20;99.90
3942;DHT22;1985;48.592;8.850;2024-03-29T05:43:01;7.30;99.90
3942;DHT22;1985;48.592;8.850;2024-03-29T05:45:28;7.40;99.90
3942;DHT22;1985;48.592;8.850;2024-03-29T05:47:55;7.50;99.90
3942;DHT22;1985;48.592;8.850;2024-03-29T05:50:22;7.60;99.90
3942;DHT22;1985;48.592;8.850;2024-03-29T05:52:49;7.70;99.90
3942;DHT22;1985;48.592;8.850;2024-03-29T05:55:14;7.70;99.90
3942;DHT22;1985;48.592;8.850;2024-03-29T05:57:40;7.70;99.90
3942;DHT22;1985;48.592;8.850;2024-03-29T06:00:11;7.60;99.90
3942;DHT22;1985;48.592;8.850;2024-03-29T06:02:39;7.60;99.90
3942;DHT22;1985;48.592;8.850;2024-03-29T06:05:05;7.70;99.90
3942;DHT22;1985;48.592;8.850;2024-03-29T06:07:31;7.70;99.90
3942;DHT22;1985;48.592;8.850;2024-03-29T06:09:59;7.80;99.90
3942;DHT22;1985;48.592;8.850;2024-03-29T06:12:26;7.80;99.90
3942;DHT22;1985;48.592;8.850;2024-03-29T06:14:52;7.70;99.90
3942;DHT22;1985;48.592;8.850;2024-03-29T06:17:36;7.60;99.90
3942;DHT22;1985;48.592;8.850;2024-03-29T06:20:02;7.50;99.90
3942;DHT22;1985;48.592;8.850;2024-03-29T06:22:29;7.50;99.90
3942;DHT22;1985;48.592;8.850;2024-03-29T06:24:56;7.30;99.90
3942;DHT22;1985;48.592;8.850;2024-03-29T06:27:31;7.40;99.90
3942;DHT22;1985;48.592;8.850;2024-03-29T06:29:57;7.60;99.90
3942;DHT22;1985;48.592;8.850;2024-03-29T06:32:23;7.70;99.90
3942;DHT22;1985;48.592;8.850;2024-03-29T06:34:49;7.90;99.90
3942;DHT22;1985;48.592;8.850;2024-03-29T06:37:14;8.00;99.90
3942;DHT22;1985;48.592;8.850;2024-03-29T06:39:40;8.10;99.90
3942;DHT22;1985;48.592;8.850;2024-03-29T06:42:07;8.20;99.90
3942;DHT22;1985;48.592;8.850;2024-03-29T06:44:33;8.30;99.90
3942;DHT22;1985;48.592;8.850;2024-03-29T06:46:59;8.40;99.90
3942;DHT22;1985;48.592;8.850;2024-03-29T06:49:25;8.50;99.90
3942;DHT22;1985;48.592;8.850;2024-03-29T06:51:51;8.50;99.90
3942;DHT22;1985;48.592;8.850;2024-03-29T06:54:16;8.60;99.90
3942;DHT22;1985;48.592;8.850;2024-03-29T06:56:42;8.60;99.90
3942;DHT22;1985;48.592;8.850;2024-03-29T06:59:08;8.70;99.90
3942;DHT22;1985;48.592;8.850;2024-03-29T07:01:33;8.80;99.90
3942;DHT22;1985;48.592;8.850;2024-03-29T07:03:59;8.80;99.90
3942;DHT22;1985;48.592;8.850;2024-03-29T07:06:25;8.70;99.90
3942;DHT22;1985;48.592;8.850;2024-03-29T07:08:50;8.60;99.90
3942;DHT22;1985;48.592;8.850;2024-03-29T07:11:16;8.50;99.90
3942;DHT22;1985;48.592;8.850;2024-03-29T07:13:42;8.40;99.90
3942;DHT22;1985;48.592;8.850;2024-03-29T07:16:07;8.30;99.90
3942;DHT22;1985;48.592;8.850;2024-03-29T07:18:33;8.30;99.90
3942;DHT22;1985;48.592;8.850;2024-03-29T07:20:59;8.10;99.90
3942;DHT22;1985;48.592;8.850;2024-03-29T07:23:24;7.80;99.90
3942;DHT22;1985;48.592;8.850;2024-03-29T07:28:23;7.10;99.90
3942;DHT22;1985;48.592;8.850;2024-03-29T07:30:49;7.00;99.90
3942;DHT22;1985;48.592;8.850;2024-03-29T07:33:19;7.00;99.90
3942;DHT22;1985;48.592;8.850;2024-03-29T07:35:47;7.00;99.90
3942;DHT22;1985;48.592;8.850;2024-03-29T07:38:13;6.80;99.90
3942;DHT22;1985;48.592;8.850;2024-03-29T07:40:43;6.50;99.90
3942;DHT22;1985;48.592;8.850;2024-03-29T07:43:08;6.40;99.90
3942;DHT22;1985;48.592;8.850;2024-03-29T07:45:34;6.40;99.90
3942;DHT22;1985;48.592;8.850;2024-03-29T07:47:59;6.30;99.90
3942;DHT22;1985;48.592;8.850;2024-03-29T07:50:25;6.30;99.90
3942;DHT22;1985;48.592;8.850;2024-03-29T07:52:51;6.50;99.90
3942;DHT22;1985;48.592;8.850;2024-03-29T07:55:17;6.50;99.90
3942;DHT22;1985;48.592;8.850;2024-03-29T07:57:43;6.60;99.90
3942;DHT22;1985;48.592;8.850;2024-03-29T08:00:09;6.90;99.90
3942;DHT22;1985;48.592;8.850;2024-03-29T08:02:36;7.10;99.90
3942;DHT22;1985;48.592;8.850;2024-03-29T08:05:02;7.40;99.90
3942;DHT22;1985;48.592;8.850;2024-03-29T08:07:27;7.60;99.90
3942;DHT22;1985;48.592;8.850;2024-03-29T08:09:53;7.70;99.90
3942;DHT22;1985;48.592;8.850;2024-03-29T08:12:19;7.80;99.90
3942;DHT22;1985;48.592;8.850;2024-03-29T08:14:45;7.90;99.90
3942;DHT22;1985;48.592;8.850;2024-03-29T08:17:12;8.00;99.90
3942;DHT22;1985;48.592;8.850;2024-03-29T08:19:40;8.10;99.90
3942;DHT22;1985;48.592;8.850;2024-03-29T08:22:06;8.00;99.90
3942;DHT22;1985;48.592;8.850;2024-03-29T08:24:32;8.00;99.90
3942;DHT22;1985;48.592;8.850;2024-03-29T08:26:58;8.10;99.90
3942;DHT22;1985;48.592;8.850;2024-03-29T08:29:24;8.20;99.90
3942;DHT22;1985;48.592;8.850;2024-03-29T08:31:50;8.20;99.90
3942;DHT22;1985;48.592;8.850;2024-03-29T08:34:16;8.40;99.90
3942;DHT22;1985;48.592;8.850;2024-03-29T08:36:42;8.40;99.90
3942;DHT22;1985;48.592;8.850;2024-03-29T08:39:07;8.60;99.90
3942;DHT22;1985;48.592;8.850;2024-03-29T08:41:33;8.60;99.90
3942;DHT22;1985;48.592;8.850;2024-03-29T08:43:58;8.60;99.90
3942;DHT22;1985;48.592;8.850;2024-03-29T08:46:24;8.70;99.90
3942;DHT22;1985;48.592;8.850;2024-03-29T08:48:50;8.80;99.90
3942;DHT22;1985;48.592;8.850;2024-03-29T08:51:15;8.90;99.90
3942;DHT22;1985;48.592;8.850;2024-03-29T08:53:41;8.90;99.90
3942;DHT22;1985;48.592;8.850;2024-03-29T08:56:07;9.00;99.90
3942;DHT22;1985;48.592;8.850;2024-03-29T08:58:33;9.10;99.90
3942;DHT22;1985;48.592;8.850;2024-03-29T09:00:58;9.00;99.90
3942;DHT22;1985;48.592;8.850;2024-03-29T09:03:26;9.10;99.90
3942;DHT22;1985;48.592;8.850;2024-03-29T09:05:52;9.20;99.90
3942;DHT22;1985;48.592;8.850;2024-03-29T09:08:18;9.20;99.90
3942;DHT22;1985;48.592;8.850;2024-03-29T09:10:43;9.30;99.90
3942;DHT22;1985;48.592;8.850;2024-03-29T09:13:11;9.30;99.90
3942;DHT22;1985;48.592;8.850;2024-03-29T09:15:37;9.40;99.90
3942;DHT22;1985;48.592;8.850;2024-03-29T09:18:03;9.40;99.90
3942;DHT22;1985;48.592;8.850;2024-03-29T09:20:36;9.20;99.90
3942;DHT22;1985;48.592;8.850;2024-03-29T09:23:03;9.20;99.90
3942;DHT22;1985;48.592;8.850;2024-03-29T09:25:29;9.30;99.90
3942;DHT22;1985;48.592;8.850;2024-03-29T09:27:55;9.40;99.90
3942;DHT22;1985;48.592;8.850;2024-03-29T09:30:21;9.30;99.90
3942;DHT22;1985;48.592;8.850;2024-03-29T09:32:47;9.30;99.90
3942;DHT22;1985;48.592;8.850;2024-03-29T09:35:16;9.40;99.90
3942;DHT22;1985;48.592;8.850;2024-03-29T09:37:42;9.50;99.90
3942;DHT22;1985;48.592;8.850;2024-03-29T09:40:10;9.80;99.90
3942;DHT22;1985;48.592;8.850;2024-03-29T09:42:38;9.90;99.90
3942;DHT22;1985;48.592;8.850;2024-03-29T09:45:05;9.90;99.90
3942;DHT22;1985;48.592;8.850;2024-03-29T09:47:31;9.80;99.90
3942;DHT22;1985;48.592;8.850;2024-03-29T09:50:02;9.90;99.90
3942;DHT22;1985;48.592;8.850;2024-03-29T09:52:30;9.80;99.90
3942;DHT22;1985;48.592;8.850;2024-03-29T09:54:56;9.80;99.90
3942;DHT22;1985;48.592;8.850;2024-03-29T09:57:22;9.80;99.90
3942;DHT22;1985;48.592;8.850;2024-03-29T09:59:49;9.80;99.90
3942;DHT22;1985;48.592;8.850;2024-03-29T10:02:16;9.80;99.90
3942;DHT22;1985;48.592;8.850;2024-03-29T10:04:46;9.80;99.90
3942;DHT22;1985;48.592;8.850;2024-03-29T10:07:14;10.00;99.90
3942;DHT22;1985;48.592;8.850;2024-03-29T10:09:42;10.20;99.90
3942;DHT22;1985;48.592;8.850;2024-03-29T10:12:08;10.70;99.90
3942;DHT22;1985;48.592;8.850;2024-03-29T10:14:46;11.40;99.90
3942;DHT22;1985;48.592;8.850;2024-03-29T10:17:18;12.00;99.90
3942;DHT22;1985;48.592;8.850;2024-03-29T10:19:45;12.20;99.90
3942;DHT22;1985;48.592;8.850;2024-03-29T10:22:11;12.50;99.90
3942;DHT22;1985;48.592;8.850;2024-03-29T10:24:37;12.70;99.90
3942;DHT22;1985;48.592;8.850;2024-03-29T10:27:03;12.90;99.90
3942;DHT22;1985;48.592;8.850;2024-03-29T10:29:29;13.30;99.90
3942;DHT22;1985;48.592;8.850;2024-03-29T10:31:55;13.60;99.90
3942;DHT22;1985;48.592;8.850;2024-03-29T10:34:21;13.70;99.90
3942;DHT22;1985;48.592;8.850;2024-03-29T10:36:49;14.10;99.90
3942;DHT22;1985;48.592;8.850;2024-03-29T10:39:16;14.10;99.90
3942;DHT22;1985;48.592;8.850;2024-03-29T10:41:43;13.80;99.90
3942;DHT22;1985;48.592;8.850;2024-03-29T10:44:10;13.50;99.90
3942;DHT22;1985;48.592;8.850;2024-03-29T10:46:40;13.70;99.90
3942;DHT22;1985;48.592;8.850;2024-03-29T10:49:10;14.00;99.90
3942;DHT22;1985;48.592;8.850;2024-03-29T10:51:40;14.70;99.90
3942;DHT22;1985;48.592;8.850;2024-03-29T10:54:08;15.00;99.90
3942;DHT22;1985;48.592;8.850;2024-03-29T10:56:35;15.10;99.90
3942;DHT22;1985;48.592;8.850;2024-03-29T10:59:11;14.90;99.90
3942;DHT22;1985;48.592;8.850;2024-03-29T11:01:41;14.10;99.90
3942;DHT22;1985;48.592;8.850;2024-03-29T11:04:16;13.70;99.90
3942;DHT22;1985;48.592;8.850;2024-03-29T11:06:43;13.40;99.90
3942;DHT22;1985;48.592;8.850;2024-03-29T11:09:13;13.30;99.90
3942;DHT22;1985;48.592;8.850;2024-03-29T11:11:46;13.60;99.90
3942;DHT22;1985;48.592;8.850;2024-03-29T11:14:24;13.70;99.90
3942;DHT22;1985;48.592;8.850;2024-03-29T11:16:52;14.20;99.90
3942;DHT22;1985;48.592;8.850;2024-03-29T11:19:23;14.70;99.90
3942;DHT22;1985;48.592;8.850;2024-03-29T11:21:48;15.50;99.90
3942;DHT22;1985;48.592;8.850;2024-03-29T11:24:17;15.90;99.90
3942;DHT22;1985;48.592;8.850;2024-03-29T11:26:45;15.80;99.90
3942;DHT22;1985;48.592;8.850;2024-03-29T11:29:21;15.40;99.90
3942;DHT22;1985;48.592;8.850;2024-03-29T11:31:47;15.60;99.90
3942;DHT22;1985;48.592;8.850;2024-03-29T11:34:18;15.80;99.90
3942;DHT22;1985;48.592;8.850;2024-03-29T11:36:45;15.50;99.90
3942;DHT22;1985;48.592;8.850;2024-03-29T11:39:20;15.40;99.90
3942;DHT22;1985;48.592;8.850;2024-03-29T11:41:47;15.20;99.90
3942;DHT22;1985;48.592;8.850;2024-03-29T11:44:14;15.10;99.90
3942;DHT22;1985;48.592;8.850;2024-03-29T11:46:40;15.00;99.90
3942;DHT22;1985;48.592;8.850;2024-03-29T11:49:06;14.80;99.90
3942;DHT22;1985;48.592;8.850;2024-03-29T11:51:31;14.60;99.90
3942;DHT22;1985;48.592;8.850;2024-03-29T11:53:57;14.60;99.90
3942;DHT22;1985;48.592;8.850;2024-03-29T11:56:23;14.40;99.90
3942;DHT22;1985;48.592;8.850;2024-03-29T11:58:49;14.20;99.90
3942;DHT22;1985;48.592;8.850;2024-03-29T12:01:15;14.00;99.90
3942;DHT22;1985;48.592;8.850;2024-03-29T12:03:42;14.20;99.90
3942;DHT22;1985;48.592;8.850;2024-03-29T12:06:10;14.20;99.90
3942;DHT22;1985;48.592;8.850;2024-03-29T12:08:38;14.20;99.90
3942;DHT22;1985;48.592;8.850;2024-03-29T12:11:04;14.50;99.90
3942;DHT22;1985;48.592;8.850;2024-03-29T12:13:31;14.80;99.90
3942;DHT22;1985;48.592;8.850;2024-03-29T12:15:57;15.20;99.90
3942;DHT22;1985;48.592;8.850;2024-03-29T12:18:25;15.40;99.90
3942;DHT22;1985;48.592;8.850;2024-03-29T12:20:52;15.60;99.90
3942;DHT22;1985;48.592;8.850;2024-03-29T12:23:21;15.70;99.90
3942;DHT22;1985;48.592;8.850;2024-03-29T12:25:48;15.50;99.90
3942;DHT22;1985;48.592;8.850;2024-03-29T12:28:15;15.50;99.90
3942;DHT22;1985;48.592;8.850;2024-03-29T12:30:43;15.60;99.90
3942;DHT22;1985;48.592;8.850;2024-03-29T12:33:15;15.90;99.90
3942;DHT22;1985;48.592;8.850;2024-03-29T12:35:48;16.50;99.90
3942;DHT22;1985;48.592;8.850;2024-03-29T12:38:16;17.00;99.90
3942;DHT22;1985;48.592;8.850;2024-03-29T12:40:43;17.20;99.90
3942;DHT22;1985;48.592;8.850;2024-03-29T12:43:10;17.20;99.90
3942;DHT22;1985;48.592;8.850;2024-03-29T12:45:37;17.30;99.90
3942;DHT22;1985;48.592;8.850;2024-03-29T12:48:13;17.30;99.90
3942;DHT22;1985;48.592;8.850;2024-03-29T12:50:41;17.30;99.90
3942;DHT22;1985;48.592;8.850;2024-03-29T12:53:09;17.40;99.20
3942;DHT22;1985;48.592;8.850;2024-03-29T12:55:36;17.50;98.40
3942;DHT22;1985;48.592;8.850;2024-03-29T12:58:07;17.90;99.20
3942;DHT22;1985;48.592;8.850;2024-03-29T13:00:35;18.60;98.80
3942;DHT22;1985;48.592;8.850;2024-03-29T13:03:01;18.90;92.80
3942;DHT22;1985;48.592;8.850;2024-03-29T13:05:28;19.40;92.70
3942;DHT22;1985;48.592;8.850;2024-03-29T13:08:00;19.90;92.70
3942;DHT22;1985;48.592;8.850;2024-03-29T13:10:26;20.10;91.50
3942;DHT22;1985;48.592;8.850;2024-03-29T13:12:51;20.30;90.20
3942;DHT22;1985;48.592;8.850;2024-03-29T13:15:25;20.20;90.80
3942;DHT22;1985;48.592;8.850;2024-03-29T13:17:52;20.50;90.70
3942;DHT22;1985;48.592;8.850;2024-03-29T13:20:19;20.70;89.20
3942;DHT22;1985;48.592;8.850;2024-03-29T13:22:46;20.80;88.90
3942;DHT22;1985;48.592;8.850;2024-03-29T13:25:13;20.80;87.20
3942;DHT22;1985;48.592;8.850;2024-03-29T13:27:40;21.00;88.90
3942;DHT22;1985;48.592;8.850;2024-03-29T13:30:07;21.20;85.40
3942;DHT22;1985;48.592;8.850;2024-03-29T13:32:34;21.20;85.50
3942;DHT22;1985;48.592;8.850;2024-03-29T13:35:00;21.20;82.60
3942;DHT22;1985;48.592;8.850;2024-03-29T13:37:26;21.20;84.50
3942;DHT22;1985;48.592;8.850;2024-03-29T13:39:53;21.20;83.60
3942;DHT22;1985;48.592;8.850;2024-03-29T13:42:19;21.20;82.00
3942;DHT22;1985;48.592;8.850;2024-03-29T13:44:44;21.20;80.20
3942;DHT22;1985;48.592;8.850;2024-03-29T13:47:11;21.40;77.80
3942;DHT22;1985;48.592;8.850;2024-03-29T13:49:42;21.60;76.80
3942;DHT22;1985;48.592;8.850;2024-03-29T13:52:08;21.50;74.20
3942;DHT22;1985;48.592;8.850;2024-03-29T13:54:34;21.60;74.40
3942;DHT22;1985;48.592;8.850;2024-03-29T13:57:00;21.60;73.70
3942;DHT22;1985;48.592;8.850;2024-03-29T13:59:30;21.50;74.40
3942;DHT22;1985;48.592;8.850;2024-03-29T14:01:56;21.40;73.30
3942;DHT22;1985;48.592;8.850;2024-03-29T14:04:22;21.40;73.80
3942;DHT22;1985;48.592;8.850;2024-03-29T14:06:48;21.20;70.70
3942;DHT22;1985;48.592;8.850;2024-03-29T14:09:14;21.00;71.40
3942;DHT22;1985;48.592;8.850;2024-03-29T14:11:39;21.10;71.80
3942;DHT22;1985;48.592;8.850;2024-03-29T14:14:05;21.20;71.90
3942;DHT22;1985;48.592;8.850;2024-03-29T14:16:33;21.20;70.50
3942;DHT22;1985;48.592;8.850;2024-03-29T14:18:59;21.10;69.50
3942;DHT22;1985;48.592;8.850;2024-03-29T14:21:24;20.50;67.80
3942;DHT22;1985;48.592;8.850;2024-03-29T14:23:50;20.30;69.70
3942;DHT22;1985;48.592;8.850;2024-03-29T14:26:16;20.30;70.60
3942;DHT22;1985;48.592;8.850;2024-03-29T14:28:41;20.20;71.20
3942;DHT22;1985;48.592;8.850;2024-03-29T14:31:07;19.80;71.00
3942;DHT22;1985;48.592;8.850;2024-03-29T14:33:33;19.90;70.30
3942;DHT22;1985;48.592;8.850;2024-03-29T14:35:59;19.80;69.00
3942;DHT22;1985;48.592;8.850;2024-03-29T14:38:25;19.80;70.00
3942;DHT22;1985;48.592;8.850;2024-03-29T14:40:50;20.00;70.80
3942;DHT22;1985;48.592;8.850;2024-03-29T14:43:16;19.90;68.90
3942;DHT22;1985;48.592;8.850;2024-03-29T14:45:43;19.80;69.50
3942;DHT22;1985;48.592;8.850;2024-03-29T14:48:09;19.80;69.30
3942;DHT22;1985;48.592;8.850;2024-03-29T14:50:35;19.70;70.30
3942;DHT22;1985;48.592;8.850;2024-03-29T14:53:01;19.50;70.40
3942;DHT22;1985;48.592;8.850;2024-03-29T14:55:26;19.50;70.70
3942;DHT22;1985;48.592;8.850;2024-03-29T14:57:52;19.10;72.10
3942;DHT22;1985;48.592;8.850;2024-03-29T15:00:19;18.90;73.10
3942;DHT22;1985;48.592;8.850;2024-03-29T15:02:45;18.80;74.50
3942;DHT22;1985;48.592;8.850;2024-03-29T15:05:12;18.70;74.70
3942;DHT22;1985;48.592;8.850;2024-03-29T15:07:38;18.60;75.80
3942;DHT22;1985;48.592;8.850;2024-03-29T15:10:04;18.60;76.80
3942;DHT22;1985;48.592;8.850;2024-03-29T15:12:36;18.60;75.60
3942;DHT22;1985;48.592;8.850;2024-03-29T15:15:02;18.60;75.80
3942;DHT22;1985;48.592;8.850;2024-03-29T15:17:28;18.60;75.50
3942;DHT22;1985;48.592;8.850;2024-03-29T15:19:53;18.60;74.80
3942;DHT22;1985;48.592;8.850;2024-03-29T15:22:19;18.60;75.50
3942;DHT22;1985;48.592;8.850;2024-03-29T15:24:45;18.70;75.40
3942;DHT22;1985;48.592;8.850;2024-03-29T15:27:11;18.70;74.00
3942;DHT22;1985;48.592;8.850;2024-03-29T15:29:55;18.60;73.60
3942;DHT22;1985;48.592;8.850;2024-03-29T15:32:22;18.30;72.90
3942;DHT22;1985;48.592;8.850;2024-03-29T15:34:48;18.10;73.80
3942;DHT22;1985;48.592;8.850;2024-03-29T15:37:15;18.10;74.40
3942;DHT22;1985;48.592;8.850;2024-03-29T15:39:40;18.20;74.90
3942;DHT22;1985;48.592;8.850;2024-03-29T15:42:06;18.40;74.50
3942;DHT22;1985;48.592;8.850;2024-03-29T15:44:35;18.60;74.60
3942;DHT22;1985;48.592;8.850;2024-03-29T15:47:00;18.60;74.10
3942;DHT22;1985;48.592;8.850;2024-03-29T15:49:26;18.50;74.70
3942;DHT22;1985;48.592;8.850;2024-03-29T15:51:51;18.40;76.70
3942;DHT22;1985;48.592;8.850;2024-03-29T15:54:17;18.40;77.60
3942;DHT22;1985;48.592;8.850;2024-03-29T15:56:45;18.50;78.20
3942;DHT22;1985;48.592;8.850;2024-03-29T15:59:12;18.50;78.20
3942;DHT22;1985;48.592;8.850;2024-03-29T16:01:38;18.40;77.10
3942;DHT22;1985;48.592;8.850;2024-03-29T16:04:04;18.30;77.40
3942;DHT22;1985;48.592;8.850;2024-03-29T16:06:32;18.10;77.60
3942;DHT22;1985;48.592;8.850;2024-03-29T16:08:57;18.00;77.10
3942;DHT22;1985;48.592;8.850;2024-03-29T16:11:23;17.70;77.40
3942;DHT22;1985;48.592;8.850;2024-03-29T16:13:49;17.60;78.10